sensor_id;sensor_type;location;lat;lon;timestamp;temperature;humidity
71082;SHT31;58740;50.672;18.690;2024-01-11T00:02:31;-8.34;72.13
71082;SHT31;58740;50.672;18.690;2024-01-11T00:05:06;-8.34;72.07
71082;SHT31;58740;50.672;18.690;2024-01-11T00:07:40;-8.39;71.86
71082;SHT31;58740;50.672;18.690;2024-01-11T00:10:14;-8.46;71.94
71082;SHT31;58740;50.672;18.690;2024-01-11T00:12:47;-8.48;72.05
71082;SHT31;58740;50.672;18.690;2024-01-11T00:15:20;-8.52;72.00
71082;SHT31;58740;50.672;18.690;2024-01-11T00:17:54;-8.55;71.95
71082;SHT31;58740;50.672;18.690;2024-01-11T00:20:27;-8.59;72.06
71082;SHT31;58740;50.672;18.690;2024-01-11T00:23:00;-8.59;72.47
71082;SHT31;58740;50.672;18.690;2024-01-11T00:25:34;-8.54;72.27
71082;SHT31;58740;50.672;18.690;2024-01-11T00:28:07;-8.49;72.13
71082;SHT31;58740;50.672;18.690;2024-01-11T00:30:40;-8.51;71.88
71082;SHT31;58740;50.672;18.690;2024-01-11T00:33:14;-8.56;71.74
71082;SHT31;58740;50.672;18.690;2024-01-11T00:35:47;-8.62;71.82
71082;SHT31;58740;50.672;18.690;2024-01-11T00:38:20;-8.65;71.95
71082;SHT31;58740;50.672;18.690;2024-01-11T00:40:54;-8.65;72.04
71082;SHT31;58740;50.672;18.690;2024-01-11T00:43:27;-8.61;72.13
71082;SHT31;58740;50.672;18.690;2024-01-11T00:46:00;-8.61;71.85
71082;SHT31;58740;50.672;18.690;2024-01-11T00:48:34;-8.65;71.84
71082;SHT31;58740;50.672;18.690;2024-01-11T00:51:07;-8.73;71.77
71082;SHT31;58740;50.672;18.690;2024-01-11T00:53:40;-8.77;71.94
71082;SHT31;58740;50.672;18.690;2024-01-11T00:56:17;-8.79;71.91
71082;SHT31;58740;50.672;18.690;2024-01-11T00:58:51;-8.80;72.04
71082;SHT31;58740;50.672;18.690;2024-01-11T01:01:24;-8.80;72.11
71082;SHT31;58740;50.672;18.690;2024-01-11T01:03:57;-8.80;71.98
71082;SHT31;58740;50.672;18.690;2024-01-11T01:06:31;-8.81;71.93
71082;SHT31;58740;50.672;18.690;2024-01-11T01:09:05;-8.81;71.94
71082;SHT31;58740;50.672;18.690;2024-01-11T01:11:38;-8.82;71.86
71082;SHT31;58740;50.672;18.690;2024-01-11T01:14:11;-8.84;71.75
71082;SHT31;58740;50.672;18.690;2024-01-11T01:16:45;-8.84;71.89
71082;SHT31;58740;50.672;18.690;2024-01-11T01:19:18;-8.85;71.88
71082;SHT31;58740;50.672;18.690;2024-01-11T01:21:51;-8.81;72.10
71082;SHT31;58740;50.672;18.690;2024-01-11T01:24:24;-8.79;71.76
71082;SHT31;58740;50.672;18.690;2024-01-11T01:26:58;-8.83;71.72
71082;SHT31;58740;50.672;18.690;2024-01-11T01:29:31;-8.85;71.82
71082;SHT31;58740;50.672;18.690;2024-01-11T01:32:05;-8.85;71.84
71082;SHT31;58740;50.672;18.690;2024-01-11T01:34:38;-8.85;71.80
71082;SHT31;58740;50.672;18.690;2024-01-11T01:37:14;-8.86;71.84
71082;SHT31;58740;50.672;18.690;2024-01-11T01:39:49;-8.88;71.83
71082;SHT31;58740;50.672;18.690;2024-01-11T01:42:22;-8.87;71.90
71082;SHT31;58740;50.672;18.690;2024-01-11T01:44:55;-8.89;71.89
71082;SHT31;58740;50.672;18.690;2024-01-11T01:47:29;-8.91;71.93
71082;SHT31;58740;50.672;18.690;2024-01-11T01:50:03;-8.92;72.09
71082;SHT31;58740;50.672;18.690;2024-01-11T01:52:39;-8.87;72.39
71082;SHT31;58740;50.672;18.690;2024-01-11T01:55:14;-8.80;72.37
71082;SHT31;58740;50.672;18.690;2024-01-11T01:57:48;-8.76;72.07
71082;SHT31;58740;50.672;18.690;2024-01-11T02:00:24;-8.78;71.92
71082;SHT31;58740;50.672;18.690;2024-01-11T02:02:57;-8.79;71.90
71082;SHT31;58740;50.672;18.690;2024-01-11T02:05:31;-8.85;71.94
71082;SHT31;58740;50.672;18.690;2024-01-11T02:08:06;-8.87;72.20
71082;SHT31;58740;50.672;18.690;2024-01-11T02:10:42;-8.85;72.08
71082;SHT31;58740;50.672;18.690;2024-01-11T02:13:16;-8.87;71.79
71082;SHT31;58740;50.672;18.690;2024-01-11T02:15:50;-8.91;71.91
71082;SHT31;58740;50.672;18.690;2024-01-11T02:18:24;-8.89;72.00
71082;SHT31;58740;50.672;18.690;2024-01-11T02:20:57;-8.81;71.98
71082;SHT31;58740;50.672;18.690;2024-01-11T02:23:33;-8.76;71.80
71082;SHT31;58740;50.672;18.690;2024-01-11T02:26:17;-8.69;71.63
71082;SHT31;58740;50.672;18.690;2024-01-11T02:28:51;-8.70;71.22
71082;SHT31;58740;50.672;18.690;2024-01-11T02:31:25;-8.77;71.10
71082;SHT31;58740;50.672;18.690;2024-01-11T02:33:59;-8.83;71.31
71082;SHT31;58740;50.672;18.690;2024-01-11T02:36:32;-8.84;71.40
71082;SHT31;58740;50.672;18.690;2024-01-11T02:39:06;-8.86;71.40
71082;SHT31;58740;50.672;18.690;2024-01-11T02:41:39;-8.88;71.37
71082;SHT31;58740;50.672;18.690;2024-01-11T02:44:14;-8.90;71.57
71082;SHT31;58740;50.672;18.690;2024-01-11T02:46:47;-8.86;71.50
71082;SHT31;58740;50.672;18.690;2024-01-11T02:49:20;-8.85;71.27
71082;SHT31;58740;50.672;18.690;2024-01-11T02:51:54;-8.85;71.25
71082;SHT31;58740;50.672;18.690;2024-01-11T02:54:27;-8.90;71.10
71082;SHT31;58740;50.672;18.690;2024-01-11T02:57:00;-8.94;71.35
71082;SHT31;58740;50.672;18.690;2024-01-11T02:59:34;-8.92;71.61
71082;SHT31;58740;50.672;18.690;2024-01-11T03:02:10;-8.88;71.98
71082;SHT31;58740;50.672;18.690;2024-01-11T03:04:43;-8.88;71.91
71082;SHT31;58740;50.672;18.690;2024-01-11T03:07:16;-8.86;72.02
71082;SHT31;58740;50.672;18.690;2024-01-11T03:09:49;-8.84;72.04
71082;SHT31;58740;50.672;18.690;2024-01-11T03:12:22;-8.79;72.03
71082;SHT31;58740;50.672;18.690;2024-01-11T03:14:56;-8.80;71.97
71082;SHT31;58740;50.672;18.690;2024-01-11T03:17:29;-8.79;71.92
71082;SHT31;58740;50.672;18.690;2024-01-11T03:20:03;-8.79;71.75
71082;SHT31;58740;50.672;18.690;2024-01-11T03:22:38;-8.78;71.61
71082;SHT31;58740;50.672;18.690;2024-01-11T03:25:18;-8.76;71.64
71082;SHT31;58740;50.672;18.690;2024-01-11T03:27:51;-8.73;71.73
71082;SHT31;58740;50.672;18.690;2024-01-11T03:30:24;-8.71;71.40
71082;SHT31;58740;50.672;18.690;2024-01-11T03:32:58;-8.73;71.28
71082;SHT31;58740;50.672;18.690;2024-01-11T03:35:31;-8.77;71.20
71082;SHT31;58740;50.672;18.690;2024-01-11T03:38:08;-8.79;71.37
71082;SHT31;58740;50.672;18.690;2024-01-11T03:40:41;-8.77;71.56
71082;SHT31;58740;50.672;18.690;2024-01-11T03:43:15;-8.76;71.45
71082;SHT31;58740;50.672;18.690;2024-01-11T03:45:50;-8.74;71.46
71082;SHT31;58740;50.672;18.690;2024-01-11T03:48:23;-8.73;71.50
71082;SHT31;58740;50.672;18.690;2024-01-11T03:50:57;-8.73;71.50
71082;SHT31;58740;50.672;18.690;2024-01-11T03:53:30;-8.70;71.50
71082;SHT31;58740;50.672;18.690;2024-01-11T03:56:07;-8.68;71.44
71082;SHT31;58740;50.672;18.690;2024-01-11T03:58:40;-8.65;71.39
71082;SHT31;58740;50.672;18.690;2024-01-11T04:01:15;-8.60;71.46
71082;SHT31;58740;50.672;18.690;2024-01-11T04:03:48;-8.59;71.61
71082;SHT31;58740;50.672;18.690;2024-01-11T04:06:22;-8.56;71.73
71082;SHT31;58740;50.672;18.690;2024-01-11T04:08:55;-8.56;71.46
71082;SHT31;58740;50.672;18.690;2024-01-11T04:11:29;-8.57;71.46
71082;SHT31;58740;50.672;18.690;2024-01-11T04:14:02;-8.56;71.57
71082;SHT31;58740;50.672;18.690;2024-01-11T04:16:39;-8.54;71.51
71082;SHT31;58740;50.672;18.690;2024-01-11T04:19:13;-8.58;71.35
71082;SHT31;58740;50.672;18.690;2024-01-11T04:21:51;-8.59;71.50
71082;SHT31;58740;50.672;18.690;2024-01-11T04:24:24;-8.59;71.47
71082;SHT31;58740;50.672;18.690;2024-01-11T04:26:57;-8.61;71.42
71082;SHT31;58740;50.672;18.690;2024-01-11T04:29:30;-8.61;71.70
71082;SHT31;58740;50.672;18.690;2024-01-11T04:32:04;-8.55;71.66
71082;SHT31;58740;50.672;18.690;2024-01-11T04:34:38;-8.52;71.57
71082;SHT31;58740;50.672;18.690;2024-01-11T04:37:11;-8.52;71.68
71082;SHT31;58740;50.672;18.690;2024-01-11T04:39:44;-8.52;71.55
71082;SHT31;58740;50.672;18.690;2024-01-11T04:42:17;-8.52;71.59
71082;SHT31;58740;50.672;18.690;2024-01-11T04:44:50;-8.51;71.68
71082;SHT31;58740;50.672;18.690;2024-01-11T04:47:24;-8.46;71.63
71082;SHT31;58740;50.672;18.690;2024-01-11T04:49:57;-8.43;71.54
71082;SHT31;58740;50.672;18.690;2024-01-11T04:52:51;-8.44;71.40
71082;SHT31;58740;50.672;18.690;2024-01-11T04:55:24;-8.44;71.55
71082;SHT31;58740;50.672;18.690;2024-01-11T04:57:57;-8.40;71.54
71082;SHT31;58740;50.672;18.690;2024-01-11T05:00:30;-8.36;71.41
71082;SHT31;58740;50.672;18.690;2024-01-11T05:03:04;-8.36;71.36
71082;SHT31;58740;50.672;18.690;2024-01-11T05:05:37;-8.36;71.39
71082;SHT31;58740;50.672;18.690;2024-01-11T05:08:11;-8.38;71.38
71082;SHT31;58740;50.672;18.690;2024-01-11T05:10:44;-8.35;71.48
71082;SHT31;58740;50.672;18.690;2024-01-11T05:13:18;-8.34;71.28
71082;SHT31;58740;50.672;18.690;2024-01-11T05:15:51;-8.38;71.26
71082;SHT31;58740;50.672;18.690;2024-01-11T05:18:24;-8.39;71.40
71082;SHT31;58740;50.672;18.690;2024-01-11T05:21:03;-8.41;71.40
71082;SHT31;58740;50.672;18.690;2024-01-11T05:23:36;-8.43;71.40
71082;SHT31;58740;50.672;18.690;2024-01-11T05:26:10;-8.42;71.46
71082;SHT31;58740;50.672;18.690;2024-01-11T05:28:45;-8.43;71.40
71082;SHT31;58740;50.672;18.690;2024-01-11T05:31:19;-8.40;71.48
71082;SHT31;58740;50.672;18.690;2024-01-11T05:33:52;-8.39;71.40
71082;SHT31;58740;50.672;18.690;2024-01-11T05:36:25;-8.40;71.38
71082;SHT31;58740;50.672;18.690;2024-01-11T05:39:01;-8.37;71.45
71082;SHT31;58740;50.672;18.690;2024-01-11T05:41:34;-8.32;71.40
71082;SHT31;58740;50.672;18.690;2024-01-11T05:44:08;-8.29;71.40
71082;SHT31;58740;50.672;18.690;2024-01-11T05:46:41;-8.30;71.42
71082;SHT31;58740;50.672;18.690;2024-01-11T05:49:14;-8.29;71.50
71082;SHT31;58740;50.672;18.690;2024-01-11T05:51:47;-8.27;71.52
71082;SHT31;58740;50.672;18.690;2024-01-11T05:54:20;-8.24;71.57
71082;SHT31;58740;50.672;18.690;2024-01-11T05:56:56;-8.22;71.48
71082;SHT31;58740;50.672;18.690;2024-01-11T05:59:30;-8.20;71.63
71082;SHT31;58740;50.672;18.690;2024-01-11T06:02:03;-8.18;71.67
71082;SHT31;58740;50.672;18.690;2024-01-11T06:04:37;-8.16;71.92
71082;SHT31;58740;50.672;18.690;2024-01-11T06:07:10;-8.16;72.06
71082;SHT31;58740;50.672;18.690;2024-01-11T06:09:43;-8.16;72.22
71082;SHT31;58740;50.672;18.690;2024-01-11T06:12:16;-8.16;72.26
71082;SHT31;58740;50.672;18.690;2024-01-11T06:14:50;-8.19;72.48
71082;SHT31;58740;50.672;18.690;2024-01-11T06:17:23;-8.22;72.64
71082;SHT31;58740;50.672;18.690;2024-01-11T06:19:56;-8.25;72.85
71082;SHT31;58740;50.672;18.690;2024-01-11T06:22:30;-8.27;73.02
71082;SHT31;58740;50.672;18.690;2024-01-11T06:25:03;-8.26;73.16
71082;SHT31;58740;50.672;18.690;2024-01-11T06:27:37;-8.23;73.33
71082;SHT31;58740;50.672;18.690;2024-01-11T06:30:13;-8.19;73.46
71082;SHT31;58740;50.672;18.690;2024-01-11T06:32:47;-8.15;73.52
71082;SHT31;58740;50.672;18.690;2024-01-11T06:35:21;-8.09;73.53
71082;SHT31;58740;50.672;18.690;2024-01-11T06:37:55;-8.04;73.57
71082;SHT31;58740;50.672;18.690;2024-01-11T06:40:28;-7.98;73.50
71082;SHT31;58740;50.672;18.690;2024-01-11T06:43:01;-7.91;73.48
71082;SHT31;58740;50.672;18.690;2024-01-11T06:45:35;-7.87;73.29
71082;SHT31;58740;50.672;18.690;2024-01-11T06:48:08;-7.85;73.24
71082;SHT31;58740;50.672;18.690;2024-01-11T06:50:42;-7.77;73.26
71082;SHT31;58740;50.672;18.690;2024-01-11T06:53:15;-7.71;73.13
71082;SHT31;58740;50.672;18.690;2024-01-11T06:55:49;-7.68;73.16
71082;SHT31;58740;50.672;18.690;2024-01-11T06:58:22;-7.61;73.17
71082;SHT31;58740;50.672;18.690;2024-01-11T07:00:55;-7.56;73.05
71082;SHT31;58740;50.672;18.690;2024-01-11T07:03:29;-7.51;73.05
71082;SHT31;58740;50.672;18.690;2024-01-11T07:06:02;-7.42;73.07
71082;SHT31;58740;50.672;18.690;2024-01-11T07:08:36;-7.32;73.01
71082;SHT31;58740;50.672;18.690;2024-01-11T07:11:09;-7.24;72.97
71082;SHT31;58740;50.672;18.690;2024-01-11T07:13:43;-7.20;72.86
71082;SHT31;58740;50.672;18.690;2024-01-11T07:16:16;-7.15;72.77
71082;SHT31;58740;50.672;18.690;2024-01-11T07:18:50;-7.11;72.74
71082;SHT31;58740;50.672;18.690;2024-01-11T07:21:23;-7.09;72.91
71082;SHT31;58740;50.672;18.690;2024-01-11T07:24:00;-7.09;72.99
71082;SHT31;58740;50.672;18.690;2024-01-11T07:26:34;-7.11;73.04
71082;SHT31;58740;50.672;18.690;2024-01-11T07:29:07;-7.12;73.12
71082;SHT31;58740;50.672;18.690;2024-01-11T07:31:41;-7.12;73.18
71082;SHT31;58740;50.672;18.690;2024-01-11T07:34:14;-7.09;73.34
71082;SHT31;58740;50.672;18.690;2024-01-11T07:36:47;-7.09;73.44
71082;SHT31;58740;50.672;18.690;2024-01-11T07:39:22;-7.05;73.42
71082;SHT31;58740;50.672;18.690;2024-01-11T07:41:56;-7.01;73.49
71082;SHT31;58740;50.672;18.690;2024-01-11T07:44:29;-6.95;73.40
71082;SHT31;58740;50.672;18.690;2024-01-11T07:47:03;-6.87;73.50
71082;SHT31;58740;50.672;18.690;2024-01-11T07:49:36;-6.80;73.46
71082;SHT31;58740;50.672;18.690;2024-01-11T07:52:09;-6.72;73.51
71082;SHT31;58740;50.672;18.690;2024-01-11T07:54:47;-6.62;73.39
71082;SHT31;58740;50.672;18.690;2024-01-11T07:57:20;-6.55;73.22
71082;SHT31;58740;50.672;18.690;2024-01-11T07:59:53;-6.46;73.25
71082;SHT31;58740;50.672;18.690;2024-01-11T08:02:28;-6.37;73.10
71082;SHT31;58740;50.672;18.690;2024-01-11T08:05:01;-6.32;72.88
71082;SHT31;58740;50.672;18.690;2024-01-11T08:07:36;-6.24;72.80
71082;SHT31;58740;50.672;18.690;2024-01-11T08:10:10;-6.17;72.73
71082;SHT31;58740;50.672;18.690;2024-01-11T08:12:44;-6.13;72.69
71082;SHT31;58740;50.672;18.690;2024-01-11T08:15:17;-6.10;72.59
71082;SHT31;58740;50.672;18.690;2024-01-11T08:17:50;-6.06;72.50
71082;SHT31;58740;50.672;18.690;2024-01-11T08:20:24;-6.06;72.42
71082;SHT31;58740;50.672;18.690;2024-01-11T08:22:58;-6.04;72.39
71082;SHT31;58740;50.672;18.690;2024-01-11T08:25:32;-6.05;72.40
71082;SHT31;58740;50.672;18.690;2024-01-11T08:28:06;-6.06;72.57
71082;SHT31;58740;50.672;18.690;2024-01-11T08:30:39;-6.08;72.69
71082;SHT31;58740;50.672;18.690;2024-01-11T08:33:13;-6.11;72.72
71082;SHT31;58740;50.672;18.690;2024-01-11T08:35:46;-6.12;72.66
71082;SHT31;58740;50.672;18.690;2024-01-11T08:38:20;-6.15;72.62
71082;SHT31;58740;50.672;18.690;2024-01-11T08:40:54;-6.17;72.70
71082;SHT31;58740;50.672;18.690;2024-01-11T08:43:28;-6.15;72.68
71082;SHT31;58740;50.672;18.690;2024-01-11T08:46:02;-6.10;72.69
71082;SHT31;58740;50.672;18.690;2024-01-11T08:48:35;-6.05;72.50
71082;SHT31;58740;50.672;18.690;2024-01-11T08:51:09;-5.96;72.51
71082;SHT31;58740;50.672;18.690;2024-01-11T08:53:42;-5.86;72.28
71082;SHT31;58740;50.672;18.690;2024-01-11T08:56:15;-5.74;72.15
71082;SHT31;58740;50.672;18.690;2024-01-11T08:58:49;-5.60;71.98
71082;SHT31;58740;50.672;18.690;2024-01-11T09:01:22;-5.53;71.60
71082;SHT31;58740;50.672;18.690;2024-01-11T09:03:55;-5.43;71.64
71082;SHT31;58740;50.672;18.690;2024-01-11T09:06:28;-5.33;71.43
71082;SHT31;58740;50.672;18.690;2024-01-11T09:09:03;-5.27;71.13
71082;SHT31;58740;50.672;18.690;2024-01-11T09:11:39;-5.21;71.02
71082;SHT31;58740;50.672;18.690;2024-01-11T09:14:12;-5.17;71.02
71082;SHT31;58740;50.672;18.690;2024-01-11T09:16:46;-5.16;70.88
71082;SHT31;58740;50.672;18.690;2024-01-11T09:19:19;-5.15;70.71
71082;SHT31;58740;50.672;18.690;2024-01-11T09:21:52;-5.17;70.61
71082;SHT31;58740;50.672;18.690;2024-01-11T09:24:26;-5.21;70.54
71082;SHT31;58740;50.672;18.690;2024-01-11T09:27:05;-5.24;70.61
71082;SHT31;58740;50.672;18.690;2024-01-11T09:29:43;-5.27;70.66
71082;SHT31;58740;50.672;18.690;2024-01-11T09:32:19;-5.30;70.65
71082;SHT31;58740;50.672;18.690;2024-01-11T09:34:52;-5.31;70.74
71082;SHT31;58740;50.672;18.690;2024-01-11T09:37:26;-5.32;70.86
71082;SHT31;58740;50.672;18.690;2024-01-11T09:40:00;-5.33;70.86
71082;SHT31;58740;50.672;18.690;2024-01-11T09:42:39;-5.36;70.98
71082;SHT31;58740;50.672;18.690;2024-01-11T09:45:13;-5.36;71.09
71082;SHT31;58740;50.672;18.690;2024-01-11T09:47:47;-5.32;71.07
71082;SHT31;58740;50.672;18.690;2024-01-11T09:50:23;-5.29;71.10
71082;SHT31;58740;50.672;18.690;2024-01-11T09:52:58;-5.22;71.10
71082;SHT31;58740;50.672;18.690;2024-01-11T09:55:34;-5.13;71.07
71082;SHT31;58740;50.672;18.690;2024-01-11T09:58:08;-5.04;71.05
71082;SHT31;58740;50.672;18.690;2024-01-11T10:00:43;-4.93;70.96
71082;SHT31;58740;50.672;18.690;2024-01-11T10:03:20;-4.83;70.85
71082;SHT31;58740;50.672;18.690;2024-01-11T10:05:57;-4.75;70.67
71082;SHT31;58740;50.672;18.690;2024-01-11T10:08:32;-4.69;70.60
71082;SHT31;58740;50.672;18.690;2024-01-11T10:11:06;-4.62;70.56
71082;SHT31;58740;50.672;18.690;2024-01-11T10:13:40;-4.58;70.53
71082;SHT31;58740;50.672;18.690;2024-01-11T10:16:14;-4.56;70.50
71082;SHT31;58740;50.672;18.690;2024-01-11T10:18:47;-4.54;70.49
71082;SHT31;58740;50.672;18.690;2024-01-11T10:21:23;-4.54;70.50
71082;SHT31;58740;50.672;18.690;2024-01-11T10:23:59;-4.54;70.55
71082;SHT31;58740;50.672;18.690;2024-01-11T10:26:33;-4.55;70.62
71082;SHT31;58740;50.672;18.690;2024-01-11T10:29:07;-4.58;70.63
71082;SHT31;58740;50.672;18.690;2024-01-11T10:31:42;-4.60;70.75
71082;SHT31;58740;50.672;18.690;2024-01-11T10:34:15;-4.62;70.89
71082;SHT31;58740;50.672;18.690;2024-01-11T10:36:49;-4.66;70.97
71082;SHT31;58740;50.672;18.690;2024-01-11T10:39:24;-4.68;71.09
71082;SHT31;58740;50.672;18.690;2024-01-11T10:42:01;-4.69;71.30
71082;SHT31;58740;50.672;18.690;2024-01-11T10:44:39;-4.71;71.49
71082;SHT31;58740;50.672;18.690;2024-01-11T10:47:18;-4.70;71.42
71082;SHT31;58740;50.672;18.690;2024-01-11T10:49:54;-4.71;71.52
71082;SHT31;58740;50.672;18.690;2024-01-11T10:52:33;-4.70;71.54
71082;SHT31;58740;50.672;18.690;2024-01-11T10:55:19;-4.70;71.61
71082;SHT31;58740;50.672;18.690;2024-01-11T10:57:54;-4.69;71.73
71082;SHT31;58740;50.672;18.690;2024-01-11T11:00:30;-4.68;71.88
71082;SHT31;58740;50.672;18.690;2024-01-11T11:03:06;-4.65;71.97
71082;SHT31;58740;50.672;18.690;2024-01-11T11:05:41;-4.59;72.04
71082;SHT31;58740;50.672;18.690;2024-01-11T11:08:19;-4.53;72.09
71082;SHT31;58740;50.672;18.690;2024-01-11T11:10:56;-4.44;72.04
71082;SHT31;58740;50.672;18.690;2024-01-11T11:13:32;-4.31;72.00
71082;SHT31;58740;50.672;18.690;2024-01-11T11:16:08;-4.20;71.85
71082;SHT31;58740;50.672;18.690;2024-01-11T11:18:41;-4.11;71.67
71082;SHT31;58740;50.672;18.690;2024-01-11T11:21:15;-4.00;71.46
71082;SHT31;58740;50.672;18.690;2024-01-11T11:23:49;-3.91;71.33
71082;SHT31;58740;50.672;18.690;2024-01-11T11:26:22;-3.83;71.22
71082;SHT31;58740;50.672;18.690;2024-01-11T11:28:58;-3.79;71.15
71082;SHT31;58740;50.672;18.690;2024-01-11T11:31:36;-3.77;71.23
71082;SHT31;58740;50.672;18.690;2024-01-11T11:34:14;-3.76;71.17
71082;SHT31;58740;50.672;18.690;2024-01-11T11:37:10;-3.74;71.20
71082;SHT31;58740;50.672;18.690;2024-01-11T11:39:52;-3.73;71.15
71082;SHT31;58740;50.672;18.690;2024-01-11T11:42:31;-3.72;71.23
71082;SHT31;58740;50.672;18.690;2024-01-11T11:45:07;-3.75;71.19
71082;SHT31;58740;50.672;18.690;2024-01-11T11:47:41;-3.74;71.28
71082;SHT31;58740;50.672;18.690;2024-01-11T11:50:16;-3.75;71.41
71082;SHT31;58740;50.672;18.690;2024-01-11T11:52:55;-3.75;71.52
71082;SHT31;58740;50.672;18.690;2024-01-11T11:55:29;-3.74;71.55
71082;SHT31;58740;50.672;18.690;2024-01-11T11:58:04;-3.74;71.62
71082;SHT31;58740;50.672;18.690;2024-01-11T12:00:42;-3.74;71.64
71082;SHT31;58740;50.672;18.690;2024-01-11T12:03:16;-3.74;71.66
71082;SHT31;58740;50.672;18.690;2024-01-11T12:05:50;-3.76;71.72
71082;SHT31;58740;50.672;18.690;2024-01-11T12:08:23;-3.77;71.88
71082;SHT31;58740;50.672;18.690;2024-01-11T12:10:57;-3.78;71.97
71082;SHT31;58740;50.672;18.690;2024-01-11T12:13:32;-3.78;72.01
71082;SHT31;58740;50.672;18.690;2024-01-11T12:16:06;-3.78;72.04
71082;SHT31;58740;50.672;18.690;2024-01-11T12:18:39;-3.78;72.08
71082;SHT31;58740;50.672;18.690;2024-01-11T12:21:13;-3.79;72.09
71082;SHT31;58740;50.672;18.690;2024-01-11T12:23:47;-3.81;72.20
71082;SHT31;58740;50.672;18.690;2024-01-11T12:26:20;-3.84;72.21
71082;SHT31;58740;50.672;18.690;2024-01-11T12:28:54;-3.86;72.34
71082;SHT31;58740;50.672;18.690;2024-01-11T12:31:27;-3.86;72.41
71082;SHT31;58740;50.672;18.690;2024-01-11T12:34:01;-3.87;72.59
71082;SHT31;58740;50.672;18.690;2024-01-11T12:36:36;-3.87;72.52
71082;SHT31;58740;50.672;18.690;2024-01-11T12:39:11;-3.87;72.51
71082;SHT31;58740;50.672;18.690;2024-01-11T12:41:46;-3.81;72.63
71082;SHT31;58740;50.672;18.690;2024-01-11T12:44:21;-3.76;72.65
71082;SHT31;58740;50.672;18.690;2024-01-11T12:46:54;-3.68;72.66
71082;SHT31;58740;50.672;18.690;2024-01-11T12:49:28;-3.60;72.51
71082;SHT31;58740;50.672;18.690;2024-01-11T12:52:01;-3.55;72.34
71082;SHT31;58740;50.672;18.690;2024-01-11T12:54:35;-3.53;72.40
71082;SHT31;58740;50.672;18.690;2024-01-11T12:57:09;-3.52;72.40
71082;SHT31;58740;50.672;18.690;2024-01-11T12:59:47;-3.51;72.42
71082;SHT31;58740;50.672;18.690;2024-01-11T13:02:21;-3.51;72.49
71082;SHT31;58740;50.672;18.690;2024-01-11T13:04:54;-3.52;72.61
71082;SHT31;58740;50.672;18.690;2024-01-11T13:07:31;-3.50;72.90
71082;SHT31;58740;50.672;18.690;2024-01-11T13:10:06;-3.50;72.98
71082;SHT31;58740;50.672;18.690;2024-01-11T13:12:40;-3.51;72.98
71082;SHT31;58740;50.672;18.690;2024-01-11T13:15:21;-3.52;73.08
71082;SHT31;58740;50.672;18.690;2024-01-11T13:17:55;-3.53;73.28
71082;SHT31;58740;50.672;18.690;2024-01-11T13:20:28;-3.53;73.33
71082;SHT31;58740;50.672;18.690;2024-01-11T13:23:15;-3.54;73.40
71082;SHT31;58740;50.672;18.690;2024-01-11T13:25:50;-3.56;73.46
71082;SHT31;58740;50.672;18.690;2024-01-11T13:28:24;-3.57;73.63
71082;SHT31;58740;50.672;18.690;2024-01-11T13:30:57;-3.56;73.73
71082;SHT31;58740;50.672;18.690;2024-01-11T13:33:32;-3.57;73.71
71082;SHT31;58740;50.672;18.690;2024-01-11T13:36:06;-3.54;73.70
71082;SHT31;58740;50.672;18.690;2024-01-11T13:38:39;-3.50;73.80
71082;SHT31;58740;50.672;18.690;2024-01-11T13:41:13;-3.45;73.81
71082;SHT31;58740;50.672;18.690;2024-01-11T13:43:46;-3.40;73.71
71082;SHT31;58740;50.672;18.690;2024-01-11T13:46:20;-3.35;73.70
71082;SHT31;58740;50.672;18.690;2024-01-11T13:48:53;-3.31;73.63
71082;SHT31;58740;50.672;18.690;2024-01-11T13:51:27;-3.31;73.69
71082;SHT31;58740;50.672;18.690;2024-01-11T13:54:13;-3.29;73.87
71082;SHT31;58740;50.672;18.690;2024-01-11T13:56:47;-3.29;73.94
71082;SHT31;58740;50.672;18.690;2024-01-11T13:59:21;-3.29;74.06
71082;SHT31;58740;50.672;18.690;2024-01-11T14:01:55;-3.29;74.25
71082;SHT31;58740;50.672;18.690;2024-01-11T14:04:28;-3.30;74.26
71082;SHT31;58740;50.672;18.690;2024-01-11T14:07:03;-3.31;74.44
71082;SHT31;58740;50.672;18.690;2024-01-11T14:09:36;-3.32;74.55
71082;SHT31;58740;50.672;18.690;2024-01-11T14:12:10;-3.34;74.63
71082;SHT31;58740;50.672;18.690;2024-01-11T14:14:44;-3.37;74.79
71082;SHT31;58740;50.672;18.690;2024-01-11T14:17:18;-3.36;75.02
71082;SHT31;58740;50.672;18.690;2024-01-11T14:19:51;-3.35;75.11
71082;SHT31;58740;50.672;18.690;2024-01-11T14:22:25;-3.31;75.18
71082;SHT31;58740;50.672;18.690;2024-01-11T14:24:58;-3.27;75.35
71082;SHT31;58740;50.672;18.690;2024-01-11T14:27:32;-3.24;75.53
71082;SHT31;58740;50.672;18.690;2024-01-11T14:30:07;-3.23;75.67
71082;SHT31;58740;50.672;18.690;2024-01-11T14:32:43;-3.24;75.91
71082;SHT31;58740;50.672;18.690;2024-01-11T14:35:17;-3.27;76.42
71082;SHT31;58740;50.672;18.690;2024-01-11T14:37:50;-3.30;76.40
71082;SHT31;58740;50.672;18.690;2024-01-11T14:40:24;-3.33;76.57
71082;SHT31;58740;50.672;18.690;2024-01-11T14:42:57;-3.37;76.86
71082;SHT31;58740;50.672;18.690;2024-01-11T14:45:30;-3.39;77.26
71082;SHT31;58740;50.672;18.690;2024-01-11T14:48:04;-3.40;77.43
71082;SHT31;58740;50.672;18.690;2024-01-11T14:50:38;-3.40;77.85
71082;SHT31;58740;50.672;18.690;2024-01-11T14:53:15;-3.39;77.88
71082;SHT31;58740;50.672;18.690;2024-01-11T14:55:50;-3.36;78.02
71082;SHT31;58740;50.672;18.690;2024-01-11T14:58:24;-3.31;78.13
71082;SHT31;58740;50.672;18.690;2024-01-11T15:00:58;-3.29;78.30
71082;SHT31;58740;50.672;18.690;2024-01-11T15:03:34;-3.25;78.34
71082;SHT31;58740;50.672;18.690;2024-01-11T15:06:10;-3.23;78.26
71082;SHT31;58740;50.672;18.690;2024-01-11T15:08:45;-3.24;78.41
71082;SHT31;58740;50.672;18.690;2024-01-11T15:11:19;-3.26;78.68
71082;SHT31;58740;50.672;18.690;2024-01-11T15:13:57;-3.30;78.71
71082;SHT31;58740;50.672;18.690;2024-01-11T15:16:31;-3.32;78.87
71082;SHT31;58740;50.672;18.690;2024-01-11T15:19:06;-3.34;78.98
71082;SHT31;58740;50.672;18.690;2024-01-11T15:21:40;-3.39;79.13
71082;SHT31;58740;50.672;18.690;2024-01-11T15:24:19;-3.40;79.42
71082;SHT31;58740;50.672;18.690;2024-01-11T15:26:53;-3.39;79.58
71082;SHT31;58740;50.672;18.690;2024-01-11T15:29:27;-3.37;79.78
71082;SHT31;58740;50.672;18.690;2024-01-11T15:32:00;-3.33;79.62
71082;SHT31;58740;50.672;18.690;2024-01-11T15:34:34;-3.28;79.54
71082;SHT31;58740;50.672;18.690;2024-01-11T15:37:08;-3.25;79.70
71082;SHT31;58740;50.672;18.690;2024-01-11T15:39:41;-3.22;79.78
71082;SHT31;58740;50.672;18.690;2024-01-11T15:42:15;-3.23;79.69
71082;SHT31;58740;50.672;18.690;2024-01-11T15:44:48;-3.26;79.80
71082;SHT31;58740;50.672;18.690;2024-01-11T15:47:22;-3.27;80.07
71082;SHT31;58740;50.672;18.690;2024-01-11T15:49:55;-3.28;80.05
71082;SHT31;58740;50.672;18.690;2024-01-11T15:52:29;-3.29;80.07
71082;SHT31;58740;50.672;18.690;2024-01-11T15:55:02;-3.30;79.96
71082;SHT31;58740;50.672;18.690;2024-01-11T15:57:38;-3.28;80.09
71082;SHT31;58740;50.672;18.690;2024-01-11T16:00:13;-3.24;80.37